Time;durP1;ratioP1;P1;durP2;ratioP2;P2;SDS_P1;SDS_P2;PMS_P1;PMS_P2;Temp;Humidity;BMP_temperature;BMP_pressure;BME280_temperature;BME280_humidity;BME280_pressure;Samples;Min_cycle;Max_cycle;Signal;HPM_P1;HPM_P2
2023/02/24 00:01:53;;;;;;;17.33;13.37;;;;;;;12.04;85.11;98252.50;5045908;27;103295;-68
2023/02/24 00:04:21;;;;;;;20.40;14.30;;;;;;;12.01;85.38;98252.75;5041469;27;102741;-68
2023/02/24 00:06:49;;;;;;;16.73;12.73;;;;;;;12.08;85.53;98261.88;5042361;27;104920;-69
2023/02/24 00:09:19;;;;;;;25.03;17.43;;;;;;;12.07;85.16;98254.88;5044161;27;103376;-68
2023/02/24 00:11:55;;;;;;;19.83;14.73;;;;;;;12.07;85.24;98249.59;5047021;27;104157;-68
2023/02/24 00:14:28;;;;;;;17.97;13.23;;;;;;;12.15;84.89;98251.59;5044577;27;103005;-68
2023/02/24 00:16:57;;;;;;;18.23;12.33;;;;;;;12.11;85.10;98248.38;5053686;27;102887;-68
2023/02/24 00:19:27;;;;;;;17.90;12.23;;;;;;;12.15;85.07;98249.75;5048301;27;102687;-68
2023/02/24 00:21:55;;;;;;;18.23;14.00;;;;;;;11.73;87.34;98245.50;5043069;27;103229;-68
2023/02/24 00:24:24;;;;;;;22.63;17.00;;;;;;;11.41;88.79;98248.13;5050718;27;102644;-68
2023/02/24 00:26:54;;;;;;;21.63;15.63;;;;;;;11.32;90.35;98243.59;5048251;27;102954;-68
2023/02/24 00:29:24;;;;;;;20.07;15.83;;;;;;;11.35;90.62;98238.06;5046436;27;103086;-68
2023/02/24 00:31:57;;;;;;;19.03;14.50;;;;;;;11.37;90.39;98240.56;5043742;27;102736;-68
2023/02/24 00:34:26;;;;;;;18.73;14.70;;;;;;;11.29;90.87;98230.63;5051392;27;103015;-68
2023/02/24 00:36:56;;;;;;;17.47;12.53;;;;;;;11.33;90.62;98239.16;5046675;27;103634;-68
2023/02/24 00:39:29;;;;;;;18.97;13.70;;;;;;;11.51;90.06;98227.88;5047829;27;104259;-68
2023/02/24 00:42:03;;;;;;;14.97;12.33;;;;;;;11.90;87.76;98231.66;5047129;27;103409;-68
2023/02/24 00:44:33;;;;;;;17.93;14.17;;;;;;;11.93;86.93;98230.56;5048610;27;102711;-68
2023/02/24 00:47:01;;;;;;;16.10;12.33;;;;;;;11.87;87.84;98221.34;5045563;27;103669;-68
2023/02/24 00:49:29;;;;;;;17.10;13.80;;;;;;;11.89;87.31;98215.91;5043509;27;104407;-68
2023/02/24 00:51:57;;;;;;;16.83;14.03;;;;;;;11.97;86.73;98214.28;5042296;27;103153;-68
2023/02/24 00:54:27;;;;;;;15.73;12.13;;;;;;;11.95;86.99;98216.22;5048881;27;102717;-68
2023/02/24 00:56:56;;;;;;;19.77;14.53;;;;;;;11.95;86.69;98218.88;5042447;27;103986;-68
2023/02/24 00:59:25;;;;;;;17.73;15.03;;;;;;;11.90;87.56;98218.41;5043213;27;104715;-68
2023/02/24 01:01:54;;;;;;;14.27;11.23;;;;;;;11.96;87.21;98223.19;5039923;27;103523;-68
2023/02/24 01:04:22;;;;;;;23.13;17.57;;;;;;;11.72;88.03;98225.28;5038956;27;104377;-68
2023/02/24 01:06:58;;;;;;;22.97;17.20;;;;;;;11.71;88.54;98225.38;5040597;27;102863;-68
2023/02/24 01:09:28;;;;;;;16.80;13.30;;;;;;;11.79;88.61;98230.91;5036965;27;103470;-68
2023/02/24 01:14:47;;;;;;;15.27;11.90;;;;;;;11.83;87.99;98224.38;5038463;27;102731;-68
2023/02/24 01:17:17;;;;;;;17.23;14.00;;;;;;;11.85;87.70;98215.31;5042533;27;104173;-67
2023/02/24 01:19:48;;;;;;;19.53;15.30;;;;;;;11.53;89.48;98211.88;5053823;27;103226;-69
2023/02/24 01:22:18;;;;;;;20.53;15.77;;;;;;;11.32;90.43;98216.31;5044212;27;104255;-68
2023/02/24 01:24:47;;;;;;;24.13;17.57;;;;;;;10.96;91.86;98215.72;5040809;27;102701;-68
2023/02/24 01:27:18;;;;;;;19.73;13.30;;;;;;;11.37;91.50;98203.53;5038730;27;102796;-68
2023/02/24 01:29:48;;;;;;;20.03;16.57;;;;;;;11.23;90.32;98209.97;5047012;27;104242;-69
2023/02/24 01:32:20;;;;;;;20.00;16.30;;;;;;;11.31;90.47;98198.78;5047401;27;103211;-68
2023/02/24 01:34:51;;;;;;;23.20;16.37;;;;;;;11.18;90.86;98206.03;5047600;27;104270;-69
2023/02/24 01:37:19;;;;;;;16.23;12.47;;;;;;;11.45;90.79;98201.13;5048735;27;102986;-68
2023/02/24 01:39:48;;;;;;;15.73;12.93;;;;;;;11.43;89.16;98193.28;5041865;27;108357;-68
2023/02/24 01:42:19;;;;;;;21.27;16.67;;;;;;;11.30;90.48;98195.28;4974874;27;103364;-68
2023/02/24 01:45:21;;;;;;;17.20;13.30;;;;;;;11.38;90.18;98189.34;5018999;27;102759;-69
2023/02/24 01:47:53;;;;;;;15.73;12.77;;;;;;;11.53;89.19;98193.38;5018528;27;103822;-68
2023/02/24 01:50:24;;;;;;;17.43;14.60;;;;;;;11.55;88.63;98186.97;5040046;27;104119;-68
2023/02/24 01:52:57;;;;;;;23.37;16.73;;;;;;;11.32;89.80;98185.41;5019814;27;102892;-68
2023/02/24 01:55:30;;;;;;;14.87;12.40;;;;;;;11.48;89.73;98188.44;5021923;27;102663;-68
2023/02/24 01:58:03;;;;;;;14.30;10.73;;;;;;;11.53;89.31;98182.78;5044304;27;102777;-69
2023/02/24 02:00:37;;;;;;;17.20;13.33;;;;;;;11.56;88.96;98177.25;5025394;27;103751;-69
2023/02/24 02:03:11;;;;;;;20.80;14.77;;;;;;;11.48;89.05;98185.81;5024100;27;103324;-68
2023/02/24 02:05:41;;;;;;;17.67;13.07;;;;;;;11.45;89.15;98182.59;5026737;27;102722;-67
2023/02/24 02:08:10;;;;;;;17.47;13.57;;;;;;;11.55;88.72;98180.84;5024127;27;103998;-68
2023/02/24 02:10:43;;;;;;;19.73;16.23;;;;;;;11.56;87.89;98185.19;5021598;27;103344;-68
2023/02/24 02:13:14;;;;;;;16.97;11.77;;;;;;;11.61;88.60;98180.34;5025388;27;103152;-68
2023/02/24 02:15:55;;;;;;;13.40;11.13;;;;;;;11.67;88.18;98174.53;5023530;27;102665;-68
2023/02/24 02:18:32;;;;;;;14.20;11.17;;;;;;;11.59;88.45;98169.06;5027643;27;103937;-68
2023/02/24 02:21:23;;;;;;;15.33;12.23;;;;;;;11.61;88.66;98153.88;5021197;27;103652;-68
2023/02/24 02:23:59;;;;;;;21.47;16.70;;;;;;;11.48;88.15;98156.72;5018047;27;103274;-67
2023/02/24 02:26:52;;;;;;;20.17;14.87;;;;;;;11.43;88.71;98155.41;5035143;27;102694;-68
2023/02/24 02:29:43;;;;;;;17.73;13.53;;;;;;;11.53;89.66;98156.34;5019236;27;102855;-68
2023/02/24 02:32:50;;;;;;;21.33;15.63;;;;;;;11.46;89.08;98160.44;5019641;27;103942;-68
2023/02/24 02:35:24;;;;;;;16.10;13.13;;;;;;;11.47;89.83;98156.84;5023601;27;103880;-69
2023/02/24 02:38:02;;;;;;;16.00;13.40;;;;;;;11.53;89.61;98161.63;5023603;27;102688;-69
2023/02/24 02:40:37;;;;;;;19.80;14.20;;;;;;;11.50;88.96;98154.78;5018585;27;102741;-69
2023/02/24 02:43:16;;;;;;;15.27;12.80;;;;;;;11.49;89.29;98155.75;5030257;27;104438;-68
2023/02/24 02:45:48;;;;;;;21.80;14.87;;;;;;;11.47;89.21;98148.91;5026665;27;103952;-68
2023/02/24 02:48:20;;;;;;;20.93;16.10;;;;;;;11.37;89.13;98143.53;5026254;27;103122;-68
2023/02/24 02:50:54;;;;;;;14.90;12.33;;;;;;;11.39;89.62;98149.56;5018257;27;102780;-69
2023/02/24 02:53:27;;;;;;;18.23;14.73;;;;;;;11.38;89.50;98136.47;5021609;27;103971;-68
2023/02/24 02:56:01;;;;;;;13.30;11.13;;;;;;;11.42;89.12;98138.72;5026289;27;103234;-69
2023/02/24 02:58:34;;;;;;;19.70;14.27;;;;;;;11.49;88.29;98139.03;5025651;27;103046;-68
2023/02/24 03:01:06;;;;;;;15.63;12.43;;;;;;;11.46;88.74;98126.91;5022630;27;102673;-69
2023/02/24 03:03:38;;;;;;;13.77;11.20;;;;;;;11.51;88.26;98127.34;5034062;27;104044;-69
2023/02/24 03:06:11;;;;;;;14.93;11.57;;;;;;;11.46;88.16;98123.41;5018693;27;104229;-68
2023/02/24 03:08:45;;;;;;;16.87;14.43;;;;;;;11.41;87.86;98125.63;5026429;27;102679;-68
2023/02/24 03:11:17;;;;;;;15.17;12.07;;;;;;;11.42;88.06;98124.66;5030261;27;103680;-68
2023/02/24 03:13:49;;;;;;;15.87;12.30;;;;;;;11.46;87.55;98118.13;5028345;27;104517;-68
2023/02/24 03:16:19;;;;;;;14.80;11.53;;;;;;;11.46;87.49;98112.84;5030481;27;104507;-68
2023/02/24 03:18:51;;;;;;;21.13;15.83;;;;;;;11.28;87.79;98109.97;5029738;27;102680;-69
2023/02/24 03:21:29;;;;;;;13.23;11.83;;;;;;;11.31;88.05;98108.88;5020224;27;104339;-68
2023/02/24 03:23:57;;;;;;;16.70;11.67;;;;;;;11.37;88.07;98109.16;5024007;27;103833;-68
2023/02/24 03:26:30;;;;;;;18.67;15.13;;;;;;;11.33;87.16;98104.28;5021823;27;103177;-69
2023/02/24 03:29:05;;;;;;;18.03;13.80;;;;;;;11.02;89.53;98112.16;5022615;27;103068;-69
2023/02/24 03:31:40;;;;;;;14.67;11.90;;;;;;;10.97;90.28;98105.56;5023774;27;103116;-69
2023/02/24 03:34:14;;;;;;;19.43;14.97;;;;;;;10.79;90.09;98096.50;5019546;27;103350;-69
2023/02/24 03:36:43;;;;;;;14.27;11.30;;;;;;;10.67;91.26;98103.63;5028100;27;105794;-68
2023/02/24 03:39:12;;;;;;;19.97;15.97;;;;;;;10.64;91.02;98098.59;5022461;27;102982;-68
2023/02/24 03:41:55;;;;;;;15.00;13.07;;;;;;;10.71;91.39;98096.28;5025417;27;102664;-68
2023/02/24 03:44:28;;;;;;;21.10;15.93;;;;;;;10.71;91.32;98099.78;5032003;27;105500;-68
2023/02/24 03:46:56;;;;;;;15.47;12.53;;;;;;;10.66;91.34;98101.97;5019333;27;103205;-68
2023/02/24 03:49:24;;;;;;;22.10;16.73;;;;;;;10.60;91.11;98097.19;5021331;27;102798;-68
2023/02/24 03:52:07;;;;;;;17.50;14.27;;;;;;;10.55;92.28;98109.94;5017846;27;102816;-68
2023/02/24 03:54:52;;;;;;;23.73;17.23;;;;;;;10.50;91.88;98101.53;5020685;27;105036;-69
2023/02/24 03:57:33;;;;;;;24.33;18.03;;;;;;;10.25;94.62;98107.09;5025384;27;105949;-68
2023/02/24 04:00:21;;;;;;;22.77;18.80;;;;;;;10.30;94.04;98110.25;5025987;27;102726;-68
2023/02/24 04:03:03;;;;;;;23.53;18.33;;;;;;;10.32;94.53;98109.16;5027950;27;103838;-69
2023/02/24 04:05:33;;;;;;;25.97;19.40;;;;;;;10.40;93.57;98106.72;5023209;27;103454;-69
2023/02/24 04:08:08;;;;;;;22.83;19.17;;;;;;;10.09;94.39;98117.19;5024991;27;104048;-68
2023/02/24 04:10:51;;;;;;;31.07;23.00;;;;;;;10.04;95.26;98108.78;5017257;27;102863;-68
2023/02/24 04:13:34;;;;;;;23.77;17.20;;;;;;;10.23;95.09;98109.03;5027457;27;104162;-69
2023/02/24 04:16:15;;;;;;;25.40;18.80;;;;;;;10.13;95.77;98116.03;5015022;27;105654;-68
2023/02/24 04:18:50;;;;;;;22.00;17.67;;;;;;;10.33;94.81;98107.34;5027536;27;105089;-69
2023/02/24 04:21:20;;;;;;;23.07;17.03;;;;;;;10.29;94.02;98108.53;5028098;27;102712;-68
2023/02/24 04:23:52;;;;;;;25.47;18.97;;;;;;;10.29;94.51;98098.00;5022791;27;102922;-68
2023/02/24 04:26:20;;;;;;;31.30;21.20;;;;;;;10.32;93.43;98097.75;5028894;27;104465;-68
2023/02/24 04:28:49;;;;;;;24.00;17.07;;;;;;;10.44;92.48;98099.41;5022704;27;105383;-68
2023/02/24 04:31:21;;;;;;;22.53;16.17;;;;;;;10.47;93.18;98107.06;5022523;27;103036;-68
2023/02/24 04:33:52;;;;;;;26.60;18.37;;;;;;;10.56;92.22;98094.91;5024719;27;104383;-68
2023/02/24 04:36:27;;;;;;;33.87;22.90;;;;;;;10.57;91.65;98088.66;5023108;27;103061;-67
2023/02/24 04:38:56;;;;;;;24.93;19.40;;;;;;;10.69;91.10;98096.44;5025203;27;104979;-67
2023/02/24 04:41:26;;;;;;;34.03;24.57;;;;;;;10.65;90.66;98088.88;5018766;27;103146;-67
2023/02/24 04:43:54;;;;;;;31.77;22.50;;;;;;;10.61;90.67;98093.56;5020327;27;103575;-67
2023/02/24 04:46:22;;;;;;;30.37;19.50;;;;;;;10.63;90.97;98089.00;5022430;27;103521;-67
2023/02/24 04:48:50;;;;;;;36.47;25.50;;;;;;;10.55;90.10;98083.53;5027613;27;103189;-66
2023/02/24 04:51:19;;;;;;;29.33;19.37;;;;;;;10.66;90.68;98085.28;5022436;27;102728;-66
2023/02/24 04:53:49;;;;;;;31.70;23.10;;;;;;;10.62;90.18;98083.84;5022882;27;104196;-66
2023/02/24 04:56:21;;;;;;;30.53;20.00;;;;;;;10.60;90.21;98076.06;5020681;27;103288;-67
2023/02/24 04:58:51;;;;;;;27.03;20.40;;;;;;;10.48;90.31;98077.03;5022071;27;103823;-66
2023/02/24 05:01:18;;;;;;;27.13;20.67;;;;;;;10.53;90.94;98066.09;5023164;27;102837;-66
2023/02/24 05:03:47;;;;;;;26.37;20.43;;;;;;;10.56;91.07;98064.03;5021265;27;102886;-66
2023/02/24 05:06:17;;;;;;;25.17;17.70;;;;;;;10.63;90.35;98057.31;5018607;27;103422;-66
2023/02/24 05:08:45;;;;;;;25.70;17.87;;;;;;;10.68;90.08;98063.06;5031388;27;104294;-66
2023/02/24 05:11:15;;;;;;;41.17;26.63;;;;;;;10.47;90.06;98059.50;5026688;27;102813;-66
2023/02/24 05:13:45;;;;;;;34.67;22.80;;;;;;;10.54;91.19;98050.13;5018662;27;102711;-66
2023/02/24 05:16:15;;;;;;;33.07;22.80;;;;;;;10.61;90.46;98043.38;5022610;27;103889;-66
2023/02/24 05:18:44;;;;;;;31.30;21.93;;;;;;;10.68;90.33;98047.19;5025534;27;103998;-66
2023/02/24 05:24:05;;;;;;;33.67;23.13;;;;;;;10.48;90.80;98034.78;5018288;27;103558;-67
2023/02/24 05:26:35;;;;;;;28.23;20.73;;;;;;;10.49;91.68;98020.63;5023274;27;104582;-68
2023/02/24 05:29:06;;;;;;;37.70;25.10;;;;;;;10.55;91.12;98022.78;5027455;27;103157;-68
2023/02/24 05:31:36;;;;;;;29.10;20.70;;;;;;;10.69;90.11;98022.47;5031921;27;102710;-68
2023/02/24 05:34:06;;;;;;;29.13;19.90;;;;;;;10.67;89.67;98018.25;5017291;27;103770;-68
2023/02/24 05:36:37;;;;;;;31.80;23.07;;;;;;;10.68;89.06;98022.59;5021241;27;103871;-68
2023/02/24 05:39:10;;;;;;;37.47;24.50;;;;;;;10.64;89.21;98015.91;5026139;27;103177;-68
2023/02/24 05:41:40;;;;;;;38.87;26.57;;;;;;;10.65;88.60;98015.75;5020664;27;102694;-68
2023/02/24 05:44:12;;;;;;;36.00;23.53;;;;;;;10.53;89.61;98015.91;5029161;27;102765;-68
2023/02/24 05:46:41;;;;;;;34.70;24.13;;;;;;;10.59;89.44;98013.63;5030030;27;104107;-68
2023/02/24 05:49:13;;;;;;;35.37;24.10;;;;;;;10.62;87.92;98010.72;5025950;27;103236;-68
2023/02/24 05:51:53;;;;;;;36.37;26.23;;;;;;;10.52;89.00;98006.34;5027150;27;104219;-68
2023/02/24 05:54:24;;;;;;;35.53;23.63;;;;;;;10.42;89.41;98012.38;5022249;27;103048;-68
2023/02/24 05:56:52;;;;;;;38.67;26.40;;;;;;;10.47;89.17;98009.34;5029524;27;103909;-68
2023/02/24 05:59:21;;;;;;;36.37;26.67;;;;;;;10.45;89.21;98009.47;5027989;27;103240;-68
2023/02/24 06:01:52;;;;;;;36.20;24.43;;;;;;;10.45;89.53;98004.19;5023395;27;102754;-68
2023/02/24 06:04:38;;;;;;;32.03;20.77;;;;;;;10.42;89.61;98003.59;5021065;27;103969;-68
2023/02/24 06:07:12;;;;;;;37.80;25.33;;;;;;;10.32;89.69;98005.34;5027150;27;103994;-66
2023/02/24 06:09:41;;;;;;;33.70;23.27;;;;;;;10.54;89.73;98002.59;5032027;27;103255;-67
2023/02/24 06:12:10;;;;;;;44.57;28.67;;;;;;;10.56;88.61;97999.81;5032195;27;105838;-67
2023/02/24 06:14:39;;;;;;;38.93;24.73;;;;;;;10.57;88.39;97999.72;5027716;27;104136;-68
2023/02/24 06:17:07;;;;;;;35.70;24.63;;;;;;;10.63;88.28;97998.34;5025462;27;103854;-67
2023/02/24 06:19:38;;;;;;;46.53;27.53;;;;;;;10.57;88.76;97997.06;5026465;27;103208;-67
2023/02/24 06:22:09;;;;;;;41.53;25.50;;;;;;;10.50;89.35;97995.88;5033303;27;102708;-68
2023/02/24 06:24:38;;;;;;;38.63;28.20;;;;;;;10.60;88.94;97993.31;5022947;27;102740;-67
2023/02/24 06:27:09;;;;;;;37.87;26.27;;;;;;;10.55;88.66;97993.72;5025450;27;104419;-68
2023/02/24 06:29:39;;;;;;;42.40;23.60;;;;;;;10.69;88.70;97996.06;5029520;27;103234;-68
2023/02/24 06:32:08;;;;;;;41.50;26.57;;;;;;;10.61;88.21;97992.38;5025876;27;102789;-68
2023/02/24 06:34:36;;;;;;;44.17;26.53;;;;;;;10.57;88.32;97997.06;5026156;27;102746;-67
2023/02/24 06:37:10;;;;;;;41.70;27.30;;;;;;;10.35;89.06;97990.09;5029794;27;103510;-68
2023/02/24 06:39:38;;;;;;;46.40;28.60;;;;;;;10.12;90.36;97985.81;5025917;27;103345;-68
2023/02/24 06:42:07;;;;;;;36.40;24.40;;;;;;;10.20;91.52;97985.22;5022342;27;102650;-68
2023/02/24 06:44:37;;;;;;;49.97;30.80;;;;;;;10.36;90.39;97982.97;5024003;27;103551;-68
2023/02/24 06:47:11;;;;;;;46.33;27.13;;;;;;;10.51;89.50;97984.38;5024158;27;103263;-64
2023/02/24 06:49:40;;;;;;;39.80;25.27;;;;;;;10.54;89.10;97984.13;5021732;27;103179;-68
2023/02/24 06:52:09;;;;;;;52.73;31.90;;;;;;;10.41;88.51;97980.81;5024089;27;102835;-68
2023/02/24 06:54:37;;;;;;;44.57;27.37;;;;;;;10.53;88.86;97974.50;5019797;27;102753;-67
2023/02/24 06:57:08;;;;;;;37.33;22.70;;;;;;;10.58;89.22;97972.34;5017946;27;103497;-67
2023/02/24 06:59:40;;;;;;;41.07;25.93;;;;;;;10.71;87.83;97977.41;5028466;27;103239;-66
2023/02/24 07:02:10;;;;;;;49.47;29.50;;;;;;;10.18;88.92;97976.59;5027627;27;102765;-67
2023/02/24 07:04:43;;;;;;;47.80;28.70;;;;;;;10.06;90.37;97975.75;5020234;27;102639;-66
2023/02/24 07:07:16;;;;;;;49.03;28.57;;;;;;;10.24;89.73;97978.72;5020906;27;104100;-65
2023/02/24 07:09:44;;;;;;;43.87;26.33;;;;;;;10.26;89.17;97976.78;5019282;27;104328;-66
2023/02/24 07:12:14;;;;;;;43.73;25.90;;;;;;;10.34;88.82;97977.00;5017124;27;103336;-67
2023/02/24 07:14:42;;;;;;;46.33;28.33;;;;;;;10.37;88.03;97974.09;5024735;27;102796;-68
2023/02/24 07:17:13;;;;;;;38.40;24.90;;;;;;;10.58;87.37;97972.34;5027966;27;104779;-66
2023/02/24 07:19:42;;;;;;;38.93;23.10;;;;;;;10.64;87.10;97971.81;5032966;27;103961;-69
2023/02/24 07:22:13;;;;;;;39.93;24.83;;;;;;;10.60;86.64;97970.41;5023097;27;102749;-69
2023/02/24 07:24:44;;;;;;;39.33;24.77;;;;;;;10.61;87.24;97966.78;5022670;27;102791;-68
2023/02/24 07:27:20;;;;;;;44.93;25.40;;;;;;;10.60;86.96;97974.84;5021441;27;103251;-69
2023/02/24 07:29:49;;;;;;;36.27;22.43;;;;;;;10.68;86.62;97967.94;5032078;27;103020;-70
2023/02/24 07:32:22;;;;;;;42.47;27.40;;;;;;;10.70;85.90;97966.00;5021121;27;103438;-67
2023/02/24 07:34:52;;;;;;;30.80;20.10;;;;;;;10.72;86.10;97969.34;5028712;27;102739;-67
2023/02/24 07:37:22;;;;;;;47.07;28.23;;;;;;;10.67;86.12;97968.91;5029849;27;104114;-67
2023/02/24 07:39:50;;;;;;;43.77;25.80;;;;;;;10.57;86.25;97962.72;5023077;27;103201;-68
2023/02/24 07:42:18;;;;;;;42.60;24.73;;;;;;;10.67;85.93;97960.97;5024325;27;102788;-74
2023/02/24 07:44:47;;;;;;;44.20;28.10;;;;;;;10.33;87.45;97962.16;5020485;27;102835;-70
2023/02/24 07:47:16;;;;;;;46.47;27.47;;;;;;;10.31;86.82;97967.53;5013752;27;104021;-68
2023/02/24 07:49:45;;;;;;;41.57;26.33;;;;;;;10.32;87.26;97963.09;5024933;27;103000;-67
2023/02/24 07:52:14;;;;;;;44.27;25.10;;;;;;;10.47;86.35;97964.44;5017352;27;102808;-66
2023/02/24 07:54:43;;;;;;;48.43;27.53;;;;;;;10.57;85.56;97960.09;5020455;27;104233;-66
2023/02/24 07:57:12;;;;;;;38.07;24.07;;;;;;;10.65;86.00;97962.91;5021272;27;104241;-66
2023/02/24 07:59:45;;;;;;;46.03;26.47;;;;;;;10.73;85.24;97956.97;5020229;27;103386;-65
2023/02/24 08:02:14;;;;;;;42.10;23.33;;;;;;;10.73;84.81;97954.34;4996701;27;103919;-66
2023/02/24 08:04:48;;;;;;;43.17;24.90;;;;;;;10.64;85.29;97950.66;5013974;27;103312;-65
2023/02/24 08:07:22;;;;;;;40.00;24.73;;;;;;;10.80;84.80;97953.72;5015528;27;103480;-65
2023/02/24 08:10:22;;;;;;;47.50;27.93;;;;;;;10.73;84.55;97946.41;5012079;27;103458;-66
2023/02/24 08:12:54;;;;;;;37.23;22.43;;;;;;;10.75;84.61;97942.69;5020718;27;103014;-65
2023/02/24 08:15:24;;;;;;;43.20;23.90;;;;;;;10.68;84.45;97930.97;5014211;27;104208;-65
2023/02/24 08:17:53;;;;;;;46.73;27.07;;;;;;;10.91;84.35;97943.06;5013920;27;103277;-66
2023/02/24 08:20:25;;;;;;;34.23;20.30;;;;;;;11.15;83.93;97933.97;5022139;27;103465;-65
2023/02/24 08:22:55;;;;;;;53.80;28.13;;;;;;;11.06;83.48;97941.72;5018544;27;102721;-66
2023/02/24 08:25:34;;;;;;;36.97;23.07;;;;;;;11.10;84.42;97933.53;5013724;27;103116;-66
2023/02/24 08:28:05;;;;;;;45.03;27.40;;;;;;;10.78;84.31;97937.13;5009901;27;104155;-67
2023/02/24 08:30:38;;;;;;;40.17;23.83;;;;;;;11.09;84.35;97931.88;5024038;27;103174;-67
2023/02/24 08:33:09;;;;;;;37.40;22.30;;;;;;;11.19;85.22;97935.41;5013173;27;102930;-67
2023/02/24 08:35:43;;;;;;;36.27;22.40;;;;;;;11.28;84.39;97918.75;5013732;27;104132;-67
2023/02/24 08:38:15;;;;;;;28.70;17.70;;;;;;;11.28;83.24;97924.03;5015832;27;104049;-67
2023/02/24 08:40:53;;;;;;;42.83;25.73;;;;;;;11.23;82.82;97927.06;5016302;27;103774;-66
2023/02/24 08:43:31;;;;;;;38.23;24.60;;;;;;;11.07;84.85;97924.91;5014371;27;103006;-66
2023/02/24 08:46:03;;;;;;;34.73;22.17;;;;;;;11.31;84.41;97914.00;5007961;27;102774;-66
2023/02/24 08:48:41;;;;;;;41.60;24.43;;;;;;;11.42;83.87;97915.72;5041075;27;103716;-66
2023/02/24 08:51:16;;;;;;;40.53;26.53;;;;;;;11.36;82.79;97906.53;5021248;27;103211;-66
2023/02/24 08:53:46;;;;;;;40.87;26.60;;;;;;;11.33;82.58;97909.44;5020597;27;103120;-68
2023/02/24 08:56:22;;;;;;;35.30;23.47;;;;;;;11.32;83.61;97904.25;5020282;27;103722;-69
2023/02/24 08:58:55;;;;;;;38.70;25.20;;;;;;;11.52;83.42;97895.41;5014624;27;103931;-73
2023/02/24 09:01:33;;;;;;;44.50;26.73;;;;;;;11.54;83.11;97899.59;5025083;27;104073;-68
2023/02/24 09:04:03;;;;;;;36.17;22.83;;;;;;;11.64;83.28;97896.97;5017373;27;103181;-68
2023/02/24 09:06:38;;;;;;;35.37;22.47;;;;;;;11.49;83.86;97895.69;5023389;27;103537;-69
2023/02/24 09:09:21;;;;;;;46.53;26.50;;;;;;;11.58;83.23;97897.53;5025009;27;104096;-71
2023/02/24 09:12:20;;;;;;;33.40;22.87;;;;;;;11.67;82.16;97893.22;5017142;27;103185;-69
2023/02/24 09:14:49;;;;;;;40.00;24.83;;;;;;;11.22;85.48;97898.13;5021791;27;103123;-68
2023/02/24 09:17:27;;;;;;;36.57;23.37;;;;;;;11.19;85.10;97893.09;5026132;27;104173;-68
2023/02/24 09:22:56;;;;;;;46.57;27.80;;;;;;;11.52;83.50;97887.47;5029354;27;103231;-68
2023/02/24 09:25:39;;;;;;;44.87;26.53;;;;;;;11.56;82.24;97884.41;5017122;27;103822;-68
2023/02/24 09:28:09;;;;;;;40.83;23.23;;;;;;;11.45;83.48;97889.00;5019730;27;103724;-67
2023/02/24 09:30:49;;;;;;;40.43;23.83;;;;;;;11.09;84.63;97885.13;5025609;27;103259;-67
2023/02/24 09:33:21;;;;;;;34.37;21.37;;;;;;;11.35;84.09;97888.13;5016941;27;103699;-67
2023/02/24 09:36:08;;;;;;;32.13;20.60;;;;;;;11.72;82.76;97881.28;4987955;27;103192;-67
2023/02/24 09:39:08;;;;;;;31.90;20.13;;;;;;;12.08;81.28;97874.47;5017853;27;103141;-66
2023/02/24 09:41:56;;;;;;;37.03;22.90;;;;;;;11.68;82.96;97882.50;5014332;27;104538;-70
2023/02/24 09:44:32;;;;;;;35.90;21.03;;;;;;;12.02;81.46;97873.22;5016301;27;104128;-70
2023/02/24 09:47:08;;;;;;;34.80;21.57;;;;;;;11.99;81.08;97868.22;5018864;27;103148;-73
2023/02/24 09:49:47;;;;;;;32.63;19.03;;;;;;;11.73;83.64;97869.75;5020903;27;102871;-67
2023/02/24 09:52:18;;;;;;;32.70;20.90;;;;;;;11.70;81.29;97858.59;5016500;27;103797;-69
2023/02/24 09:58:21;;;;;;;31.13;18.63;;;;;;;11.68;81.27;97863.97;4998145;27;104286;-68
2023/02/24 10:00:46;;;;;;;35.20;19.47;;;;;;;11.18;84.35;97860.53;5029390;27;103992;-68
2023/02/24 10:03:40;;;;;;;34.00;18.67;;;;;;;11.82;81.59;97855.66;5030275;27;103255;-68
2023/02/24 10:06:19;;;;;;;24.80;16.40;;;;;;;12.08;79.49;97851.50;5026127;27;103712;-69
2023/02/24 10:08:54;;;;;;;27.63;15.87;;;;;;;11.91;79.81;97849.53;5025965;27;103163;-68
2023/02/24 10:11:32;;;;;;;27.60;15.40;;;;;;;12.00;79.60;97854.00;5040045;27;104825;-70
2023/02/24 10:14:05;;;;;;;27.67;16.67;;;;;;;12.05;77.69;97851.78;5025395;27;103590;-71
2023/02/24 10:16:44;;;;;;;25.10;14.53;;;;;;;11.96;79.98;97839.38;5029372;27;103386;-71
2023/02/24 10:19:26;;;;;;;24.03;14.43;;;;;;;12.11;79.42;97851.22;5012578;27;103786;-68
2023/02/24 10:22:02;;;;;;;28.07;16.90;;;;;;;12.13;79.39;97849.25;5021470;27;102955;-70
2023/02/24 10:24:40;;;;;;;25.43;14.73;;;;;;;11.84;81.09;97848.44;5028944;27;103134;-71
2023/02/24 10:27:14;;;;;;;26.23;16.47;;;;;;;11.45;81.30;97852.78;5029024;27;104268;-70
2023/02/24 10:30:03;;;;;;;30.23;17.73;;;;;;;11.26;82.57;97849.28;5024227;27;102771;-68
2023/02/24 10:32:45;;;;;;;35.13;19.77;;;;;;;11.64;81.73;97846.72;5024826;27;102813;-67
2023/02/24 10:35:16;;;;;;;31.87;19.90;;;;;;;11.87;80.59;97850.81;5030537;27;104192;-69
2023/02/24 10:37:44;;;;;;;36.03;19.27;;;;;;;11.93;80.90;97847.56;5025594;27;103195;-68
2023/02/24 10:40:23;;;;;;;37.53;20.93;;;;;;;11.95;79.91;97845.66;5025791;27;102867;-68
2023/02/24 10:43:02;;;;;;;38.07;20.93;;;;;;;11.86;80.57;97843.84;5002204;27;103646;-68
2023/02/24 10:45:43;;;;;;;31.90;19.13;;;;;;;12.46;79.85;97832.03;5021281;27;103428;-68
2023/02/24 10:48:23;;;;;;;52.97;24.33;;;;;;;11.90;79.75;97831.16;5018393;27;102684;-68
2023/02/24 10:51:18;;;;;;;49.77;23.43;;;;;;;10.88;84.12;97827.06;5019358;27;102848;-68
2023/02/24 10:54:08;;;;;;;53.77;25.73;;;;;;;11.23;83.88;97826.59;5016732;27;103835;-68
2023/02/24 10:56:54;;;;;;;48.47;25.20;;;;;;;11.42;81.98;97815.22;5018457;27;104183;-68
2023/02/24 10:59:47;;;;;;;45.33;22.67;;;;;;;11.06;83.68;97806.09;5022134;27;104386;-68
2023/02/24 11:02:28;;;;;;;48.93;23.10;;;;;;;11.25;82.92;97808.81;5015364;27;102656;-68
2023/02/24 11:05:15;;;;;;;42.30;22.40;;;;;;;11.59;80.95;97806.63;5003301;27;103213;-68
2023/02/24 11:07:52;;;;;;;53.97;28.07;;;;;;;11.63;80.86;97797.41;5021426;27;103388;-68
2023/02/24 11:10:31;;;;;;;47.10;26.23;;;;;;;11.03;82.88;97801.91;5018124;27;103329;-68
2023/02/24 11:18:39;;;;;;;40.47;21.00;;;;;;;11.99;80.02;97785.31;5023671;27;104141;-68
2023/02/24 11:21:09;;;;;;;34.23;19.03;;;;;;;11.81;80.17;97779.91;5018287;27;103122;-68
2023/02/24 11:23:41;;;;;;;45.67;24.90;;;;;;;11.26;81.16;97784.03;5022111;27;103067;-68
2023/02/24 11:26:16;;;;;;;38.80;21.93;;;;;;;11.63;80.84;97778.91;5018715;27;103343;-68
2023/02/24 11:28:59;;;;;;;44.83;23.97;;;;;;;11.61;80.37;97778.22;5013463;27;103355;-68
2023/02/24 11:31:52;;;;;;;47.57;24.73;;;;;;;11.48;79.82;97772.38;5026113;27;103042;-68
2023/02/24 11:34:29;;;;;;;41.80;23.00;;;;;;;11.65;79.50;97761.06;5020605;27;102630;-68
2023/02/24 11:37:10;;;;;;;45.10;24.23;;;;;;;11.14;80.83;97753.41;5018304;27;104083;-68
2023/02/24 11:39:53;;;;;;;51.07;23.90;;;;;;;11.41;80.15;97755.38;5021743;27;103028;-68
2023/02/24 11:42:26;;;;;;;42.40;21.87;;;;;;;11.45;80.10;97746.19;5022372;27;103209;-68
2023/02/24 11:44:59;;;;;;;41.80;21.87;;;;;;;11.60;80.08;97750.06;5015481;27;103617;-68
2023/02/24 11:47:35;;;;;;;41.77;21.80;;;;;;;11.27;80.40;97740.75;5021858;27;104149;-67
2023/02/24 11:50:26;;;;;;;41.10;22.57;;;;;;;11.17;81.57;97728.50;5010881;27;103355;-68
2023/02/24 11:52:58;;;;;;;42.83;23.47;;;;;;;11.32;80.68;97719.16;5011961;27;103224;-68
2023/02/24 11:55:34;;;;;;;37.27;21.73;;;;;;;11.65;80.38;97710.81;5016975;27;102689;-72
2023/02/24 11:58:10;;;;;;;36.67;20.93;;;;;;;11.89;79.91;97692.69;5025274;27;102828;-71